createdAt,value
2019-05-25T00:00:10.333Z,0.10
2019-05-25T00:02:38.537Z,0.10
2019-05-25T00:05:06.706Z,0.03
2019-05-25T00:07:35.006Z,0.17
2019-05-25T00:10:04.442Z,0.20
2019-05-25T00:12:32.514Z,0.10
2019-05-25T00:15:01.848Z,0.10
2019-05-25T00:17:30.254Z,0.10
2019-05-25T00:19:58.415Z,0.10
2019-05-25T00:22:26.581Z,0.10
2019-05-25T00:24:54.674Z,0.10
2019-05-25T00:27:22.847Z,0.20
2019-05-25T00:29:50.921Z,0.10
2019-05-25T00:32:19.095Z,0.10
2019-05-25T00:34:47.337Z,0.20
2019-05-25T00:37:15.594Z,0.10
2019-05-25T00:39:43.754Z,0.10
2019-05-25T00:42:11.891Z,0.20
2019-05-25T00:44:40.037Z,0.13
2019-05-25T00:47:08.136Z,0.30
2019-05-25T00:49:36.282Z,0.10
2019-05-25T00:52:04.398Z,0.17
2019-05-25T00:54:32.497Z,0.10
2019-05-25T00:57:00.652Z,0.13
2019-05-25T00:59:28.755Z,0.10
2019-05-25T01:01:56.835Z,0.10
2019-05-25T01:04:25.004Z,0.17
2019-05-25T01:06:53.154Z,0.15
2019-05-25T01:09:21.305Z,0.10
2019-05-25T01:11:49.478Z,0.17
2019-05-25T01:14:17.960Z,0.10
2019-05-25T01:16:46.053Z,0.28
2019-05-25T01:19:14.303Z,0.20
2019-05-25T01:21:42.366Z,0.10
2019-05-25T01:24:10.448Z,0.23
2019-05-25T01:26:38.614Z,0.20
2019-05-25T01:29:06.807Z,0.17
2019-05-25T01:31:34.951Z,0.10
2019-05-25T01:34:03.175Z,0.20
2019-05-25T01:36:31.750Z,0.20
2019-05-25T01:38:59.813Z,0.17
2019-05-25T01:41:27.919Z,0.20
2019-05-25T01:43:55.994Z,0.20
2019-05-25T01:46:24.080Z,0.20
2019-05-25T01:48:52.250Z,0.20
2019-05-25T01:51:20.423Z,0.20
2019-05-25T01:53:48.567Z,0.20
2019-05-25T01:56:16.653Z,0.20
2019-05-25T01:58:44.737Z,0.17
2019-05-25T02:01:12.825Z,0.23
2019-05-25T02:03:41.246Z,0.20
2019-05-25T02:06:09.329Z,0.10
2019-05-25T02:08:37.502Z,0.23
2019-05-25T02:11:05.581Z,0.20
2019-05-25T02:13:33.683Z,0.20
2019-05-25T02:16:01.815Z,0.30
2019-05-25T02:18:29.939Z,0.30
2019-05-25T02:20:58.081Z,0.30
2019-05-25T02:23:26.466Z,0.40
2019-05-25T02:25:54.634Z,0.30
2019-05-25T02:28:22.709Z,0.35
2019-05-25T02:30:50.802Z,0.30
2019-05-25T02:33:18.940Z,0.50
2019-05-25T02:35:47.031Z,0.42
2019-05-25T02:38:16.243Z,0.33
2019-05-25T02:40:44.347Z,0.30
2019-05-25T02:43:12.492Z,0.37
2019-05-25T02:45:40.829Z,0.30
2019-05-25T02:48:08.974Z,0.40
2019-05-25T02:50:37.081Z,0.20
2019-05-25T02:53:05.227Z,0.30
2019-05-25T02:55:34.986Z,0.30
2019-05-25T02:58:03.103Z,0.30
2019-05-25T03:00:32.135Z,0.40
2019-05-25T03:03:00.451Z,0.30
2019-05-25T03:05:28.606Z,0.50
2019-05-25T03:07:57.348Z,0.40
2019-05-25T03:10:25.665Z,0.30
2019-05-25T03:12:54.928Z,0.57
2019-05-25T03:15:23.064Z,0.40
2019-05-25T03:17:51.406Z,0.33
2019-05-25T03:20:19.540Z,0.35
2019-05-25T03:22:47.626Z,0.40
2019-05-25T03:25:15.775Z,0.30
2019-05-25T03:27:43.851Z,0.30
2019-05-25T03:30:12.599Z,0.20
2019-05-25T03:32:40.792Z,0.30
2019-05-25T03:35:09.047Z,0.40
2019-05-25T03:37:37.222Z,0.30
2019-05-25T03:40:06.656Z,0.30
2019-05-25T03:42:34.730Z,0.30
2019-05-25T03:45:03.185Z,0.40
2019-05-25T03:47:31.244Z,0.40
2019-05-25T03:49:59.352Z,0.30
2019-05-25T03:52:27.645Z,0.30
2019-05-25T03:54:55.766Z,0.50
2019-05-25T03:57:23.857Z,0.25
2019-05-25T03:59:51.913Z,0.30
2019-05-25T04:02:20.713Z,0.50
2019-05-25T04:04:48.870Z,0.40
2019-05-25T04:07:17.354Z,0.30
2019-05-25T04:09:45.542Z,0.33
2019-05-25T04:12:13.696Z,0.60
2019-05-25T04:14:41.767Z,0.35
2019-05-25T04:17:10.934Z,0.40
2019-05-25T04:19:38.994Z,0.50
2019-05-25T04:22:07.110Z,0.50
2019-05-25T04:24:35.276Z,0.40
2019-05-25T04:27:03.517Z,0.30
2019-05-25T04:29:31.601Z,0.35
2019-05-25T04:31:59.709Z,0.40
2019-05-25T04:34:27.868Z,0.20
2019-05-25T04:36:56.098Z,0.30
2019-05-25T04:39:24.195Z,0.30
2019-05-25T04:41:52.356Z,0.35
2019-05-25T04:44:20.443Z,0.30
2019-05-25T04:46:48.607Z,0.30
2019-05-25T04:49:16.712Z,0.37
2019-05-25T04:51:44.854Z,0.40
2019-05-25T04:54:12.951Z,0.50
2019-05-25T04:56:41.026Z,0.45
2019-05-25T04:59:10.336Z,0.40
2019-05-25T05:01:38.472Z,0.30
2019-05-25T05:04:06.617Z,0.30
2019-05-25T05:06:34.738Z,0.30
2019-05-25T05:09:02.827Z,0.20
2019-05-25T05:11:31.208Z,0.40
2019-05-25T05:14:00.366Z,0.30
2019-05-25T05:16:28.434Z,0.30
2019-05-25T05:18:56.539Z,0.47
2019-05-25T05:21:24.705Z,0.50
2019-05-25T05:23:53.856Z,0.40
2019-05-25T05:26:21.950Z,0.40
2019-05-25T05:28:50.009Z,0.42
2019-05-25T05:31:23.493Z,0.30
2019-05-25T05:33:47.878Z,0.40
2019-05-25T05:36:16.528Z,0.30
2019-05-25T05:38:44.936Z,0.30
2019-05-25T05:41:15.140Z,0.40
2019-05-25T05:43:44.958Z,0.30
2019-05-25T05:46:13.382Z,0.50
2019-05-25T05:48:42.793Z,0.30
2019-05-25T05:51:12.420Z,0.30
2019-05-25T05:53:40.916Z,0.33
2019-05-25T05:56:09.096Z,0.47
2019-05-25T05:58:38.268Z,0.40
2019-05-25T06:01:08.056Z,0.43
2019-05-25T06:03:36.154Z,0.30
2019-05-25T06:06:04.476Z,0.40
2019-05-25T06:08:32.628Z,0.53
2019-05-25T06:11:00.722Z,0.42
2019-05-25T06:13:28.945Z,0.40
2019-05-25T06:15:57.006Z,0.40
2019-05-25T06:18:25.182Z,0.40
2019-05-25T06:20:53.315Z,0.30
2019-05-25T06:23:21.417Z,0.47
2019-05-25T06:25:49.525Z,0.40
2019-05-25T06:28:21.620Z,0.40
2019-05-25T06:30:47.555Z,0.37
2019-05-25T06:33:16.630Z,0.33
2019-05-25T06:35:44.702Z,0.47
2019-05-25T06:38:13.226Z,0.33
2019-05-25T06:40:41.458Z,0.35
2019-05-25T06:43:09.632Z,0.47
2019-05-25T06:45:37.820Z,0.40
2019-05-25T06:48:06.010Z,0.50
2019-05-25T06:50:34.095Z,0.40
2019-05-25T06:53:02.178Z,0.50
2019-05-25T06:55:30.333Z,0.30
2019-05-25T06:57:58.397Z,0.50
2019-05-25T07:00:26.493Z,0.40
2019-05-25T07:02:54.637Z,0.50
2019-05-25T07:05:22.817Z,0.40
2019-05-25T07:07:54.362Z,0.50
2019-05-25T07:10:20.775Z,0.40
2019-05-25T07:12:49.304Z,0.50
2019-05-25T07:15:17.663Z,0.40
2019-05-25T07:17:45.780Z,0.30
2019-05-25T07:20:13.921Z,0.30
2019-05-25T07:22:42.081Z,0.30
2019-05-25T07:25:10.519Z,0.35
2019-05-25T07:27:38.611Z,0.42
2019-05-25T07:30:07.131Z,0.40
2019-05-25T07:32:47.551Z,0.57
2019-05-25T07:35:19.261Z,0.47
2019-05-25T07:37:47.348Z,0.53
2019-05-25T07:40:15.788Z,0.50
2019-05-25T07:42:43.873Z,0.50
2019-05-25T07:45:13.492Z,0.60
2019-05-25T07:47:41.699Z,0.40
2019-05-25T07:50:10.115Z,0.40
2019-05-25T07:52:38.225Z,0.60
2019-05-25T07:55:06.663Z,0.50
2019-05-25T07:57:34.833Z,0.62
2019-05-25T08:00:04.549Z,0.65
2019-05-25T08:02:33.022Z,0.70
2019-05-25T08:05:01.108Z,0.70
2019-05-25T08:07:30.305Z,0.70
2019-05-25T08:09:58.474Z,0.47
2019-05-25T08:12:26.603Z,0.60
2019-05-25T08:14:55.863Z,0.42
2019-05-25T08:17:24.022Z,0.60
2019-05-25T08:19:52.189Z,0.55
2019-05-25T08:22:20.347Z,0.60
2019-05-25T08:24:48.537Z,0.70
2019-05-25T08:27:16.779Z,0.50
2019-05-25T08:29:44.925Z,0.60
2019-05-25T08:32:13.003Z,0.47
2019-05-25T08:34:41.177Z,0.50
2019-05-25T08:37:09.339Z,0.30
2019-05-25T08:39:37.470Z,0.30
2019-05-25T08:42:05.791Z,0.40
2019-05-25T08:44:34.248Z,0.47
2019-05-25T08:47:02.422Z,0.40
2019-05-25T08:49:30.585Z,0.33
2019-05-25T08:51:58.761Z,0.40
2019-05-25T08:54:26.905Z,0.50
2019-05-25T08:56:55.013Z,0.35
2019-05-25T08:59:23.222Z,0.60
2019-05-25T09:01:51.786Z,0.40
2019-05-25T09:04:19.907Z,0.35
2019-05-25T09:06:48.037Z,0.37
2019-05-25T09:09:16.136Z,0.60
2019-05-25T09:11:44.289Z,0.40
2019-05-25T09:14:12.506Z,0.30
2019-05-25T09:16:41.737Z,0.30
2019-05-25T09:19:09.928Z,0.30
2019-05-25T09:21:38.167Z,0.50
2019-05-25T09:24:06.403Z,0.50
2019-05-25T09:26:34.558Z,0.40
2019-05-25T09:29:04.823Z,0.40
2019-05-25T09:31:32.477Z,0.73
2019-05-25T09:34:00.628Z,0.40
2019-05-25T09:36:28.749Z,0.35
2019-05-25T09:38:56.936Z,0.40
2019-05-25T09:41:25.102Z,0.42
2019-05-25T09:43:53.285Z,0.55
2019-05-25T09:46:21.462Z,0.50
2019-05-25T09:48:49.627Z,0.42
2019-05-25T09:51:17.803Z,0.40
2019-05-25T09:53:45.996Z,0.40
2019-05-25T09:56:14.134Z,0.25
2019-05-25T09:58:43.367Z,0.30
2019-05-25T10:01:11.507Z,0.37
2019-05-25T10:03:39.746Z,0.45
2019-05-25T10:06:11.522Z,0.33
2019-05-25T10:08:37.702Z,0.20
2019-05-25T10:11:05.771Z,0.28
2019-05-25T10:13:33.948Z,0.40
2019-05-25T10:16:02.104Z,0.50
2019-05-25T10:18:30.281Z,0.47
2019-05-25T10:20:58.345Z,0.30
2019-05-25T10:23:26.408Z,0.40
2019-05-25T10:25:54.535Z,0.20
2019-05-25T10:28:22.746Z,0.30
2019-05-25T10:30:51.892Z,0.40
2019-05-25T10:33:21.880Z,0.30
2019-05-25T10:35:49.813Z,0.40
2019-05-25T10:38:17.956Z,0.30
2019-05-25T10:40:46.025Z,0.23
2019-05-25T10:43:14.175Z,0.30
2019-05-25T10:45:42.298Z,0.30
2019-05-25T10:48:10.453Z,0.20
2019-05-25T10:50:38.611Z,0.20
2019-05-25T10:53:06.767Z,0.10
2019-05-25T10:55:34.843Z,0.20
2019-05-25T10:58:02.955Z,0.17
2019-05-25T11:00:31.158Z,0.10
2019-05-25T11:02:59.597Z,0.10
2019-05-25T11:05:27.710Z,0.20
2019-05-25T11:07:55.794Z,0.10
2019-05-25T11:10:23.874Z,0.20
2019-05-25T11:12:51.972Z,0.10
2019-05-25T11:15:20.202Z,0.20
2019-05-25T11:17:48.354Z,0.20
2019-05-25T11:20:17.207Z,0.10
2019-05-25T11:22:45.348Z,0.10
2019-05-25T11:25:13.614Z,0.10
2019-05-25T11:27:41.717Z,0.23
2019-05-25T11:30:10.490Z,0.30
2019-05-25T11:32:39.908Z,0.20
2019-05-25T11:35:08.441Z,0.20
2019-05-25T11:37:36.514Z,0.20
2019-05-25T11:40:08.051Z,0.20
2019-05-25T11:42:36.324Z,0.35
2019-05-25T11:45:05.690Z,0.20
2019-05-25T11:47:33.933Z,0.28
2019-05-25T11:50:02.086Z,0.10
2019-05-25T11:52:30.178Z,0.35
2019-05-25T11:54:58.284Z,0.20
2019-05-25T11:57:26.399Z,0.30
2019-05-25T11:59:54.560Z,0.20
2019-05-25T12:02:22.728Z,0.20
2019-05-25T12:04:50.828Z,0.20
2019-05-25T12:07:21.242Z,0.13
2019-05-25T12:10:00.152Z,0.20
2019-05-25T12:12:28.304Z,0.20
2019-05-25T12:14:57.344Z,0.17
2019-05-25T12:17:26.360Z,0.28
2019-05-25T12:19:54.448Z,0.15
2019-05-25T12:22:22.551Z,0.20
2019-05-25T12:24:50.806Z,0.20
2019-05-25T12:27:19.067Z,0.10
2019-05-25T12:29:47.230Z,0.10
2019-05-25T12:32:15.431Z,0.23
2019-05-25T12:34:43.608Z,0.20
2019-05-25T12:37:11.752Z,0.20
2019-05-25T12:39:39.852Z,0.20
2019-05-25T12:42:07.978Z,0.10
2019-05-25T12:44:36.139Z,0.10
2019-05-25T12:47:04.348Z,0.20
2019-05-25T12:49:49.447Z,0.20
2019-05-25T12:52:02.227Z,0.10
2019-05-25T12:54:30.386Z,0.10
2019-05-25T12:56:58.483Z,0.23
2019-05-25T12:59:26.639Z,0.20
2019-05-25T13:01:54.797Z,0.20
2019-05-25T13:04:22.910Z,0.20
2019-05-25T13:06:52.230Z,0.23
2019-05-25T13:09:20.638Z,0.30
2019-05-25T13:11:48.752Z,0.20
2019-05-25T13:14:16.835Z,0.10
2019-05-25T13:16:44.952Z,0.20
2019-05-25T13:19:13.267Z,0.20
2019-05-25T13:21:41.424Z,0.13
2019-05-25T13:24:09.769Z,0.15
2019-05-25T13:26:37.884Z,0.25
2019-05-25T13:29:06.041Z,0.20
2019-05-25T13:31:34.256Z,0.30
2019-05-25T13:34:02.451Z,0.20
2019-05-25T13:36:30.663Z,0.10
2019-05-25T13:38:58.862Z,0.20
2019-05-25T13:41:26.995Z,0.20
2019-05-25T13:43:55.110Z,0.17
2019-05-25T13:46:23.315Z,0.05
2019-05-25T13:48:51.500Z,0.10
2019-05-25T13:51:19.678Z,0.20
2019-05-25T13:53:47.825Z,0.10
2019-05-25T13:56:15.935Z,0.25
2019-05-25T13:58:44.566Z,0.10
2019-05-25T14:01:27.542Z,0.15
2019-05-25T14:03:44.164Z,0.20
2019-05-25T14:06:12.382Z,0.13
2019-05-25T14:08:40.804Z,0.20
2019-05-25T14:11:09.040Z,0.20
2019-05-25T14:13:37.386Z,0.20
2019-05-25T14:16:07.453Z,0.20
2019-05-25T14:18:35.728Z,0.20
2019-05-25T14:21:04.107Z,0.10
2019-05-25T14:23:32.467Z,0.20
2019-05-25T14:26:01.214Z,0.20
2019-05-25T14:28:29.356Z,0.20
2019-05-25T14:30:57.539Z,0.10
2019-05-25T14:33:25.760Z,0.20
2019-05-25T14:35:54.999Z,0.20
2019-05-25T14:38:23.123Z,0.30
2019-05-25T14:40:51.615Z,0.30
2019-05-25T14:43:19.820Z,0.20
2019-05-25T14:45:48.056Z,0.20
2019-05-25T14:48:16.194Z,0.20
2019-05-25T14:50:44.359Z,0.25
2019-05-25T14:53:12.568Z,0.23
2019-05-25T14:55:40.763Z,0.20
2019-05-25T14:58:12.631Z,0.10
2019-05-25T15:00:38.878Z,0.30
2019-05-25T15:03:07.153Z,0.30
2019-05-25T15:05:35.333Z,0.30
2019-05-25T15:08:03.636Z,0.20
2019-05-25T15:10:31.815Z,0.10
2019-05-25T15:13:00.561Z,0.10
2019-05-25T15:15:28.892Z,0.20
2019-05-25T15:17:57.038Z,0.30
2019-05-25T15:20:25.211Z,0.20
2019-05-25T15:22:53.380Z,0.20
2019-05-25T15:25:21.616Z,0.30
2019-05-25T15:27:50.142Z,0.30
2019-05-25T15:30:18.426Z,0.23
2019-05-25T15:32:46.635Z,0.20
2019-05-25T15:35:19.803Z,0.20
2019-05-25T15:37:45.854Z,0.17
2019-05-25T15:40:14.255Z,0.20
2019-05-25T15:42:42.484Z,0.20
2019-05-25T15:45:10.993Z,0.23
2019-05-25T15:47:40.298Z,0.20
2019-05-25T15:50:13.226Z,0.10
2019-05-25T15:52:41.388Z,0.20
2019-05-25T15:55:10.109Z,0.20
2019-05-25T15:57:38.191Z,0.10
2019-05-25T16:00:10.277Z,0.10
2019-05-25T16:02:40.059Z,0.10
2019-05-25T16:05:08.672Z,0.10
2019-05-25T16:07:37.774Z,0.10
2019-05-25T16:10:07.631Z,0.20
2019-05-25T16:12:36.171Z,0.05
2019-05-25T16:15:08.779Z,0.10
2019-05-25T16:17:36.917Z,0.10
2019-05-25T16:20:06.477Z,0.10
2019-05-25T16:22:34.626Z,0.10
2019-05-25T16:25:02.718Z,0.00
2019-05-25T16:27:31.872Z,0.10
2019-05-25T16:30:00.027Z,0.10
2019-05-25T16:32:28.167Z,0.20
2019-05-25T16:34:56.256Z,0.10
2019-05-25T16:37:24.488Z,0.20
2019-05-25T16:39:53.975Z,0.10
2019-05-25T16:42:22.134Z,0.17
2019-05-25T16:44:50.214Z,0.20
2019-05-25T16:47:18.423Z,0.10
2019-05-25T16:49:46.570Z,0.10
2019-05-25T16:52:14.649Z,0.23
2019-05-25T16:54:42.744Z,0.10
2019-05-25T16:57:10.831Z,0.20
2019-05-25T16:59:38.991Z,0.10
2019-05-25T17:02:07.424Z,0.10
2019-05-25T17:04:35.536Z,0.20
2019-05-25T17:07:03.686Z,0.10
2019-05-25T17:09:31.966Z,0.20
2019-05-25T17:12:00.455Z,0.25
2019-05-25T17:14:28.627Z,0.23
2019-05-25T17:16:56.723Z,0.15
2019-05-25T17:19:24.905Z,0.20
2019-05-25T17:21:53.324Z,0.10
2019-05-25T17:24:27.557Z,0.10
2019-05-25T17:26:55.664Z,0.10
2019-05-25T17:29:23.849Z,0.10
2019-05-25T17:31:53.128Z,0.20
2019-05-25T17:34:21.297Z,0.10
2019-05-25T17:36:49.440Z,0.10
2019-05-25T17:39:17.680Z,0.20
2019-05-25T17:41:45.759Z,0.10
2019-05-25T17:44:14.060Z,0.10
2019-05-25T17:46:43.182Z,0.10
2019-05-25T17:49:11.270Z,0.20
2019-05-25T17:51:39.369Z,0.17
2019-05-25T17:54:07.519Z,0.20
2019-05-25T17:56:35.642Z,0.20
2019-05-25T17:59:04.069Z,0.13
2019-05-25T18:01:32.248Z,0.20
2019-05-25T18:04:07.185Z,0.10
2019-05-25T18:06:30.260Z,0.15
2019-05-25T18:08:58.410Z,0.20
2019-05-25T18:11:26.831Z,0.10
2019-05-25T18:13:55.004Z,0.20
2019-05-25T18:16:23.101Z,0.20
2019-05-25T18:18:51.188Z,0.10
2019-05-25T18:21:19.354Z,0.15
2019-05-25T18:23:47.838Z,0.30
2019-05-25T18:26:16.004Z,0.20
2019-05-25T18:28:44.178Z,0.20
2019-05-25T18:31:12.381Z,0.25
2019-05-25T18:33:40.574Z,0.20
2019-05-25T18:36:08.700Z,0.30
2019-05-25T18:38:36.800Z,0.30
2019-05-25T18:41:04.940Z,0.10
2019-05-25T18:43:34.090Z,0.20
2019-05-25T18:46:03.750Z,0.10
2019-05-25T18:48:34.352Z,0.20
2019-05-25T18:51:18.602Z,0.30
2019-05-25T18:53:47.945Z,0.20
2019-05-25T18:56:16.501Z,0.20
2019-05-25T18:58:44.572Z,0.20
2019-05-25T19:01:12.685Z,0.20
2019-05-25T19:03:41.198Z,0.10
2019-05-25T19:06:09.351Z,0.20
2019-05-25T19:08:37.501Z,0.10
2019-05-25T19:11:05.685Z,0.30
2019-05-25T19:13:33.871Z,0.20
2019-05-25T19:16:01.964Z,0.20
2019-05-25T19:18:30.051Z,0.17
2019-05-25T19:20:58.189Z,0.20
2019-05-25T19:23:26.349Z,0.20
2019-05-25T19:25:54.470Z,0.10
2019-05-25T19:28:22.694Z,0.10
2019-05-25T19:30:50.839Z,0.20
2019-05-25T19:33:19.009Z,0.20
2019-05-25T19:35:47.090Z,0.20
2019-05-25T19:38:15.185Z,0.10
2019-05-25T19:40:43.451Z,0.30
2019-05-25T19:43:11.620Z,0.20
2019-05-25T19:45:39.884Z,0.20
2019-05-25T19:48:08.033Z,0.30
2019-05-25T19:50:36.215Z,0.30
2019-05-25T19:53:04.368Z,0.30
2019-05-25T19:55:32.448Z,0.10
2019-05-25T19:58:00.540Z,0.23
2019-05-25T20:00:36.785Z,0.10
2019-05-25T20:03:05.273Z,0.20
2019-05-25T20:05:33.521Z,0.30
2019-05-25T20:08:12.255Z,0.20
2019-05-25T20:10:40.803Z,0.20
2019-05-25T20:13:08.981Z,0.20
2019-05-25T20:15:37.250Z,0.10
2019-05-25T20:18:05.882Z,0.23
2019-05-25T20:20:33.998Z,0.20
2019-05-25T20:23:02.142Z,0.30
2019-05-25T20:25:30.620Z,0.30
2019-05-25T20:27:58.832Z,0.20
2019-05-25T20:30:26.939Z,0.10
2019-05-25T20:32:55.120Z,0.20
2019-05-25T20:35:32.275Z,0.20
2019-05-25T20:37:52.998Z,0.23
2019-05-25T20:40:21.077Z,0.37
2019-05-25T20:42:49.168Z,0.20
2019-05-25T20:45:17.691Z,0.30
2019-05-25T20:47:45.870Z,0.30
2019-05-25T20:50:14.008Z,0.30
2019-05-25T20:52:42.149Z,0.23
2019-05-25T20:55:10.671Z,0.25
2019-05-25T20:57:40.559Z,0.30
2019-05-25T21:00:09.051Z,0.20
2019-05-25T21:02:37.447Z,0.23
2019-05-25T21:05:06.467Z,0.20
2019-05-25T21:07:34.568Z,0.25
2019-05-25T21:10:04.155Z,0.30
2019-05-25T21:12:34.266Z,0.20
2019-05-25T21:15:02.509Z,0.40
2019-05-25T21:17:30.894Z,0.40
2019-05-25T21:19:59.076Z,0.40
2019-05-25T21:22:27.270Z,0.40
2019-05-25T21:24:55.372Z,0.47
2019-05-25T21:27:23.547Z,0.50
2019-05-25T21:29:51.729Z,0.30
2019-05-25T21:32:19.915Z,0.40
2019-05-25T21:34:48.057Z,0.40
2019-05-25T21:37:16.161Z,0.40
2019-05-25T21:39:44.282Z,0.30
2019-05-25T21:42:12.463Z,0.40
2019-05-25T21:44:40.645Z,0.45
2019-05-25T21:47:08.830Z,0.40
2019-05-25T21:49:37.832Z,0.50
2019-05-25T21:52:05.998Z,0.40
2019-05-25T21:54:34.176Z,0.33
2019-05-25T21:57:02.460Z,0.37
2019-05-25T21:59:32.749Z,0.37
2019-05-25T22:02:00.428Z,0.60
2019-05-25T22:04:28.654Z,0.40
2019-05-25T22:06:56.754Z,0.40
2019-05-25T22:09:24.983Z,0.50
2019-05-25T22:11:53.173Z,0.37
2019-05-25T22:14:21.329Z,0.60
2019-05-25T22:16:49.473Z,0.40
2019-05-25T22:19:17.574Z,0.50
2019-05-25T22:21:46.320Z,0.45
2019-05-25T22:24:14.625Z,0.40
2019-05-25T22:26:42.706Z,0.50
2019-05-25T22:29:10.941Z,0.50
2019-05-25T22:31:39.145Z,0.40
2019-05-25T22:34:07.317Z,0.60
2019-05-25T22:36:40.214Z,0.50
2019-05-25T22:39:06.929Z,0.40
2019-05-25T22:41:35.120Z,0.50
2019-05-25T22:44:04.092Z,0.40
2019-05-25T22:46:32.215Z,0.42
2019-05-25T22:49:00.291Z,0.40
2019-05-25T22:51:28.473Z,0.40
2019-05-25T22:53:57.688Z,0.45
2019-05-25T22:56:25.765Z,0.50
2019-05-25T22:58:54.030Z,0.50
2019-05-25T23:01:22.109Z,0.40
2019-05-25T23:03:50.289Z,0.42
2019-05-25T23:06:18.421Z,0.40
2019-05-25T23:08:46.593Z,0.50
2019-05-25T23:11:15.032Z,0.30
2019-05-25T23:13:43.256Z,0.40
2019-05-25T23:16:13.091Z,0.42
2019-05-25T23:18:41.235Z,0.42
2019-05-25T23:21:09.479Z,0.30
2019-05-25T23:23:37.549Z,0.40
2019-05-25T23:26:05.705Z,0.33
2019-05-25T23:28:34.858Z,0.30
2019-05-25T23:31:03.068Z,0.33
2019-05-25T23:33:31.301Z,0.30
2019-05-25T23:36:00.091Z,0.30
2019-05-25T23:38:28.267Z,0.30
2019-05-25T23:40:56.442Z,0.40
2019-05-25T23:43:24.768Z,0.30
2019-05-25T23:45:52.923Z,0.20
2019-05-25T23:48:21.227Z,0.20
2019-05-25T23:50:49.363Z,0.30
2019-05-25T23:53:19.179Z,0.35
2019-05-25T23:55:47.347Z,0.40
2019-05-25T23:58:15.527Z,0.23
